sensor_id;sensor_type;location;lat;lon;timestamp;P1;durP1;ratioP1;P2;durP2;ratioP2
60494;SDS011;46342;49.046;11.920;2022-12-18T00:01:16;33.55;;;12.65;;
60494;SDS011;46342;49.046;11.920;2022-12-18T00:03:47;37.63;;;12.18;;
60494;SDS011;46342;49.046;11.920;2022-12-18T00:06:13;32.38;;;11.90;;
60494;SDS011;46342;49.046;11.920;2022-12-18T00:08:40;31.90;;;11.88;;
60494;SDS011;46342;49.046;11.920;2022-12-18T00:11:07;40.38;;;13.57;;
60494;SDS011;46342;49.046;11.920;2022-12-18T00:13:35;33.15;;;11.15;;
60494;SDS011;46342;49.046;11.920;2022-12-18T00:16:05;33.42;;;11.90;;
60494;SDS011;46342;49.046;11.920;2022-12-18T00:18:33;32.53;;;12.63;;
60494;SDS011;46342;49.046;11.920;2022-12-18T00:21:04;29.80;;;11.63;;
60494;SDS011;46342;49.046;11.920;2022-12-18T00:23:32;32.20;;;11.15;;
60494;SDS011;46342;49.046;11.920;2022-12-18T00:26:00;28.77;;;11.32;;
60494;SDS011;46342;49.046;11.920;2022-12-18T00:28:27;28.17;;;10.90;;
60494;SDS011;46342;49.046;11.920;2022-12-18T00:33:47;26.88;;;10.57;;
60494;SDS011;46342;49.046;11.920;2022-12-18T00:36:17;37.47;;;12.43;;
60494;SDS011;46342;49.046;11.920;2022-12-18T00:38:45;29.30;;;11.57;;
60494;SDS011;46342;49.046;11.920;2022-12-18T00:41:11;33.25;;;10.70;;
60494;SDS011;46342;49.046;11.920;2022-12-18T00:43:38;32.85;;;10.70;;
60494;SDS011;46342;49.046;11.920;2022-12-18T00:46:04;33.95;;;10.60;;
60494;SDS011;46342;49.046;11.920;2022-12-18T00:48:31;27.23;;;10.35;;
60494;SDS011;46342;49.046;11.920;2022-12-18T00:50:57;26.90;;;10.23;;
60494;SDS011;46342;49.046;11.920;2022-12-18T00:53:22;31.60;;;11.10;;
60494;SDS011;46342;49.046;11.920;2022-12-18T00:55:48;35.53;;;10.90;;
60494;SDS011;46342;49.046;11.920;2022-12-18T00:58:15;25.00;;;9.80;;
60494;SDS011;46342;49.046;11.920;2022-12-18T01:00:41;27.08;;;10.93;;
60494;SDS011;46342;49.046;11.920;2022-12-18T01:03:07;31.42;;;10.30;;
60494;SDS011;46342;49.046;11.920;2022-12-18T01:05:33;33.50;;;10.63;;
60494;SDS011;46342;49.046;11.920;2022-12-18T01:07:58;28.73;;;9.82;;
60494;SDS011;46342;49.046;11.920;2022-12-18T01:10:24;23.05;;;9.57;;
60494;SDS011;46342;49.046;11.920;2022-12-18T01:12:50;35.33;;;11.38;;
60494;SDS011;46342;49.046;11.920;2022-12-18T01:15:16;29.48;;;10.38;;
60494;SDS011;46342;49.046;11.920;2022-12-18T01:17:42;26.15;;;9.45;;
60494;SDS011;46342;49.046;11.920;2022-12-18T01:20:09;29.60;;;9.68;;
60494;SDS011;46342;49.046;11.920;2022-12-18T01:22:36;26.50;;;8.80;;
60494;SDS011;46342;49.046;11.920;2022-12-18T01:25:02;26.02;;;7.88;;
60494;SDS011;46342;49.046;11.920;2022-12-18T01:27:29;26.80;;;9.40;;
60494;SDS011;46342;49.046;11.920;2022-12-18T01:29:54;26.10;;;9.63;;
60494;SDS011;46342;49.046;11.920;2022-12-18T01:32:20;32.30;;;11.15;;
60494;SDS011;46342;49.046;11.920;2022-12-18T01:34:46;32.75;;;9.45;;
60494;SDS011;46342;49.046;11.920;2022-12-18T01:37:12;38.17;;;11.20;;
60494;SDS011;46342;49.046;11.920;2022-12-18T01:39:38;27.70;;;9.93;;
60494;SDS011;46342;49.046;11.920;2022-12-18T01:42:05;31.13;;;11.50;;
60494;SDS011;46342;49.046;11.920;2022-12-18T01:44:51;31.98;;;10.38;;
60494;SDS011;46342;49.046;11.920;2022-12-18T01:49:49;37.88;;;11.85;;
60494;SDS011;46342;49.046;11.920;2022-12-18T01:52:15;35.38;;;12.48;;
60494;SDS011;46342;49.046;11.920;2022-12-18T01:54:43;28.87;;;10.03;;
60494;SDS011;46342;49.046;11.920;2022-12-18T01:57:09;29.88;;;10.68;;
60494;SDS011;46342;49.046;11.920;2022-12-18T01:59:34;33.67;;;10.48;;
60494;SDS011;46342;49.046;11.920;2022-12-18T02:02:01;32.00;;;11.30;;
60494;SDS011;46342;49.046;11.920;2022-12-18T02:04:28;35.53;;;12.27;;
60494;SDS011;46342;49.046;11.920;2022-12-18T02:09:59;32.53;;;11.48;;
60494;SDS011;46342;49.046;11.920;2022-12-18T02:12:39;35.15;;;11.43;;
60494;SDS011;46342;49.046;11.920;2022-12-18T02:15:13;32.70;;;10.50;;
60494;SDS011;46342;49.046;11.920;2022-12-18T02:17:47;30.83;;;10.80;;
60494;SDS011;46342;49.046;11.920;2022-12-18T02:23:23;36.28;;;12.32;;
60494;SDS011;46342;49.046;11.920;2022-12-18T02:28:31;30.83;;;11.98;;
60494;SDS011;46342;49.046;11.920;2022-12-18T02:31:00;28.27;;;9.68;;
60494;SDS011;46342;49.046;11.920;2022-12-18T02:33:27;40.75;;;11.15;;
60494;SDS011;46342;49.046;11.920;2022-12-18T02:35:55;36.25;;;11.45;;
60494;SDS011;46342;49.046;11.920;2022-12-18T02:38:23;32.67;;;10.23;;
60494;SDS011;46342;49.046;11.920;2022-12-18T02:40:50;38.40;;;11.07;;
60494;SDS011;46342;49.046;11.920;2022-12-18T02:43:18;35.90;;;11.55;;
60494;SDS011;46342;49.046;11.920;2022-12-18T02:45:57;31.15;;;11.05;;
60494;SDS011;46342;49.046;11.920;2022-12-18T02:48:28;30.23;;;11.10;;
60494;SDS011;46342;49.046;11.920;2022-12-18T02:51:03;35.75;;;11.52;;
60494;SDS011;46342;49.046;11.920;2022-12-18T02:53:40;32.25;;;11.57;;
60494;SDS011;46342;49.046;11.920;2022-12-18T02:56:19;35.85;;;10.98;;
60494;SDS011;46342;49.046;11.920;2022-12-18T02:59:05;29.75;;;9.55;;
60494;SDS011;46342;49.046;11.920;2022-12-18T03:04:14;33.03;;;11.07;;
60494;SDS011;46342;49.046;11.920;2022-12-18T03:06:45;31.20;;;9.90;;
60494;SDS011;46342;49.046;11.920;2022-12-18T03:09:24;38.75;;;12.43;;
60494;SDS011;46342;49.046;11.920;2022-12-18T03:12:20;28.92;;;9.85;;
60494;SDS011;46342;49.046;11.920;2022-12-18T03:15:31;32.45;;;10.05;;
60494;SDS011;46342;49.046;11.920;2022-12-18T03:17:43;31.52;;;9.20;;
60494;SDS011;46342;49.046;11.920;2022-12-18T03:20:14;35.55;;;10.40;;
60494;SDS011;46342;49.046;11.920;2022-12-18T03:22:44;31.35;;;10.07;;
60494;SDS011;46342;49.046;11.920;2022-12-18T03:25:13;38.17;;;11.63;;
60494;SDS011;46342;49.046;11.920;2022-12-18T03:27:43;26.10;;;9.32;;
60494;SDS011;46342;49.046;11.920;2022-12-18T03:30:12;30.65;;;9.48;;
60494;SDS011;46342;49.046;11.920;2022-12-18T03:32:41;31.13;;;11.65;;
60494;SDS011;46342;49.046;11.920;2022-12-18T03:35:11;26.10;;;8.68;;
60494;SDS011;46342;49.046;11.920;2022-12-18T03:37:43;32.97;;;10.13;;
60494;SDS011;46342;49.046;11.920;2022-12-18T03:40:09;35.22;;;11.45;;
60494;SDS011;46342;49.046;11.920;2022-12-18T03:42:37;32.33;;;10.57;;
60494;SDS011;46342;49.046;11.920;2022-12-18T03:45:27;29.85;;;10.27;;
60494;SDS011;46342;49.046;11.920;2022-12-18T03:48:19;29.63;;;8.77;;
60494;SDS011;46342;49.046;11.920;2022-12-18T03:50:57;32.25;;;8.88;;
60494;SDS011;46342;49.046;11.920;2022-12-18T03:56:23;30.90;;;9.57;;
60494;SDS011;46342;49.046;11.920;2022-12-18T03:58:53;27.35;;;8.70;;
60494;SDS011;46342;49.046;11.920;2022-12-18T04:01:22;29.20;;;8.77;;
60494;SDS011;46342;49.046;11.920;2022-12-18T04:03:53;22.85;;;7.75;;
60494;SDS011;46342;49.046;11.920;2022-12-18T04:06:19;26.80;;;9.50;;
60494;SDS011;46342;49.046;11.920;2022-12-18T04:08:46;29.08;;;10.68;;
60494;SDS011;46342;49.046;11.920;2022-12-18T04:11:12;31.17;;;10.15;;
60494;SDS011;46342;49.046;11.920;2022-12-18T04:13:38;34.95;;;9.48;;
60494;SDS011;46342;49.046;11.920;2022-12-18T04:16:04;29.95;;;10.30;;
60494;SDS011;46342;49.046;11.920;2022-12-18T04:18:30;34.15;;;11.30;;
60494;SDS011;46342;49.046;11.920;2022-12-18T04:20:56;38.80;;;10.98;;
60494;SDS011;46342;49.046;11.920;2022-12-18T04:23:22;31.25;;;10.77;;
60494;SDS011;46342;49.046;11.920;2022-12-18T04:25:47;28.02;;;10.02;;
60494;SDS011;46342;49.046;11.920;2022-12-18T04:28:13;34.95;;;11.90;;
60494;SDS011;46342;49.046;11.920;2022-12-18T04:30:39;32.60;;;10.13;;
60494;SDS011;46342;49.046;11.920;2022-12-18T04:33:08;29.48;;;10.25;;
60494;SDS011;46342;49.046;11.920;2022-12-18T04:35:38;31.48;;;10.82;;
60494;SDS011;46342;49.046;11.920;2022-12-18T04:38:05;31.17;;;9.77;;
60494;SDS011;46342;49.046;11.920;2022-12-18T04:40:32;33.10;;;11.02;;
60494;SDS011;46342;49.046;11.920;2022-12-18T04:42:57;26.90;;;9.75;;
60494;SDS011;46342;49.046;11.920;2022-12-18T04:45:23;28.45;;;10.00;;
60494;SDS011;46342;49.046;11.920;2022-12-18T04:47:48;33.85;;;10.02;;
60494;SDS011;46342;49.046;11.920;2022-12-18T04:50:14;33.75;;;11.38;;
60494;SDS011;46342;49.046;11.920;2022-12-18T04:52:39;32.30;;;10.73;;
60494;SDS011;46342;49.046;11.920;2022-12-18T04:55:05;23.83;;;9.32;;
60494;SDS011;46342;49.046;11.920;2022-12-18T04:57:31;24.63;;;8.13;;
60494;SDS011;46342;49.046;11.920;2022-12-18T04:59:56;21.98;;;7.70;;
60494;SDS011;46342;49.046;11.920;2022-12-18T05:02:22;28.83;;;9.15;;
60494;SDS011;46342;49.046;11.920;2022-12-18T05:04:47;29.15;;;11.13;;
60494;SDS011;46342;49.046;11.920;2022-12-18T05:07:13;28.50;;;10.35;;
60494;SDS011;46342;49.046;11.920;2022-12-18T05:09:39;31.65;;;11.60;;
60494;SDS011;46342;49.046;11.920;2022-12-18T05:12:05;27.40;;;10.25;;
60494;SDS011;46342;49.046;11.920;2022-12-18T05:14:31;26.83;;;8.85;;
60494;SDS011;46342;49.046;11.920;2022-12-18T05:16:56;24.83;;;9.30;;
60494;SDS011;46342;49.046;11.920;2022-12-18T05:19:22;32.70;;;12.00;;
60494;SDS011;46342;49.046;11.920;2022-12-18T05:21:48;24.95;;;9.82;;
60494;SDS011;46342;49.046;11.920;2022-12-18T05:24:13;32.58;;;9.55;;
60494;SDS011;46342;49.046;11.920;2022-12-18T05:26:39;31.17;;;11.43;;
60494;SDS011;46342;49.046;11.920;2022-12-18T05:29:04;29.13;;;10.20;;
60494;SDS011;46342;49.046;11.920;2022-12-18T05:31:30;27.33;;;10.77;;
60494;SDS011;46342;49.046;11.920;2022-12-18T05:33:55;27.17;;;10.00;;
60494;SDS011;46342;49.046;11.920;2022-12-18T05:36:21;32.20;;;10.98;;
60494;SDS011;46342;49.046;11.920;2022-12-18T05:38:47;28.88;;;10.45;;
60494;SDS011;46342;49.046;11.920;2022-12-18T05:41:12;27.35;;;9.90;;
60494;SDS011;46342;49.046;11.920;2022-12-18T05:43:38;25.17;;;9.15;;
60494;SDS011;46342;49.046;11.920;2022-12-18T05:46:05;26.40;;;9.32;;
60494;SDS011;46342;49.046;11.920;2022-12-18T05:48:32;27.50;;;9.63;;
60494;SDS011;46342;49.046;11.920;2022-12-18T05:51:03;25.88;;;7.28;;
60494;SDS011;46342;49.046;11.920;2022-12-18T05:53:31;22.10;;;7.63;;
60494;SDS011;46342;49.046;11.920;2022-12-18T05:55:59;25.02;;;7.95;;
60494;SDS011;46342;49.046;11.920;2022-12-18T05:58:26;28.80;;;9.57;;
60494;SDS011;46342;49.046;11.920;2022-12-18T06:00:52;22.20;;;8.90;;
60494;SDS011;46342;49.046;11.920;2022-12-18T06:03:17;29.10;;;8.68;;
60494;SDS011;46342;49.046;11.920;2022-12-18T06:05:44;29.15;;;8.77;;
60494;SDS011;46342;49.046;11.920;2022-12-18T06:08:10;23.75;;;9.55;;
60494;SDS011;46342;49.046;11.920;2022-12-18T06:10:37;30.08;;;8.20;;
60494;SDS011;46342;49.046;11.920;2022-12-18T06:13:03;23.85;;;9.18;;
60494;SDS011;46342;49.046;11.920;2022-12-18T06:15:29;28.40;;;9.32;;
60494;SDS011;46342;49.046;11.920;2022-12-18T06:17:54;21.30;;;8.27;;
60494;SDS011;46342;49.046;11.920;2022-12-18T06:20:20;24.27;;;7.93;;
60494;SDS011;46342;49.046;11.920;2022-12-18T06:22:46;27.60;;;9.07;;
60494;SDS011;46342;49.046;11.920;2022-12-18T06:25:11;24.58;;;8.93;;
60494;SDS011;46342;49.046;11.920;2022-12-18T06:27:37;33.90;;;10.73;;
60494;SDS011;46342;49.046;11.920;2022-12-18T06:30:04;20.98;;;7.30;;
60494;SDS011;46342;49.046;11.920;2022-12-18T06:32:30;30.25;;;10.85;;
60494;SDS011;46342;49.046;11.920;2022-12-18T06:34:56;24.50;;;8.50;;
60494;SDS011;46342;49.046;11.920;2022-12-18T06:37:22;28.88;;;10.27;;
60494;SDS011;46342;49.046;11.920;2022-12-18T06:39:51;33.65;;;10.57;;
60494;SDS011;46342;49.046;11.920;2022-12-18T06:42:17;30.23;;;10.07;;
60494;SDS011;46342;49.046;11.920;2022-12-18T06:44:43;27.25;;;8.75;;
60494;SDS011;46342;49.046;11.920;2022-12-18T06:47:09;31.20;;;9.82;;
60494;SDS011;46342;49.046;11.920;2022-12-18T06:49:34;30.05;;;10.95;;
60494;SDS011;46342;49.046;11.920;2022-12-18T06:52:00;26.50;;;9.88;;
60494;SDS011;46342;49.046;11.920;2022-12-18T06:54:25;35.08;;;9.98;;
60494;SDS011;46342;49.046;11.920;2022-12-18T06:56:51;31.63;;;10.85;;
60494;SDS011;46342;49.046;11.920;2022-12-18T06:59:16;33.55;;;10.73;;
60494;SDS011;46342;49.046;11.920;2022-12-18T07:01:42;25.17;;;9.27;;
60494;SDS011;46342;49.046;11.920;2022-12-18T07:04:08;32.53;;;11.07;;
60494;SDS011;46342;49.046;11.920;2022-12-18T07:06:33;26.85;;;9.05;;
60494;SDS011;46342;49.046;11.920;2022-12-18T07:08:59;22.35;;;8.00;;
60494;SDS011;46342;49.046;11.920;2022-12-18T07:11:24;28.17;;;10.38;;
60494;SDS011;46342;49.046;11.920;2022-12-18T07:13:50;25.70;;;9.10;;
60494;SDS011;46342;49.046;11.920;2022-12-18T07:16:18;21.58;;;8.73;;
60494;SDS011;46342;49.046;11.920;2022-12-18T07:18:44;26.38;;;8.50;;
60494;SDS011;46342;49.046;11.920;2022-12-18T07:21:12;34.97;;;9.25;;
60494;SDS011;46342;49.046;11.920;2022-12-18T07:23:39;32.33;;;9.15;;
60494;SDS011;46342;49.046;11.920;2022-12-18T07:26:06;29.02;;;10.02;;
60494;SDS011;46342;49.046;11.920;2022-12-18T07:28:34;33.97;;;10.65;;
60494;SDS011;46342;49.046;11.920;2022-12-18T07:31:04;32.00;;;9.68;;
60494;SDS011;46342;49.046;11.920;2022-12-18T07:33:31;25.33;;;9.75;;
60494;SDS011;46342;49.046;11.920;2022-12-18T07:36:01;30.20;;;9.27;;
60494;SDS011;46342;49.046;11.920;2022-12-18T07:38:32;34.50;;;11.98;;
60494;SDS011;46342;49.046;11.920;2022-12-18T07:41:02;31.48;;;11.23;;
60494;SDS011;46342;49.046;11.920;2022-12-18T07:43:29;30.50;;;9.00;;
60494;SDS011;46342;49.046;11.920;2022-12-18T07:45:55;27.77;;;9.02;;
60494;SDS011;46342;49.046;11.920;2022-12-18T07:48:22;39.20;;;11.32;;
60494;SDS011;46342;49.046;11.920;2022-12-18T07:50:47;32.08;;;8.93;;
60494;SDS011;46342;49.046;11.920;2022-12-18T07:53:13;27.33;;;8.68;;
60494;SDS011;46342;49.046;11.920;2022-12-18T07:55:40;36.22;;;10.18;;
60494;SDS011;46342;49.046;11.920;2022-12-18T07:58:07;28.50;;;7.95;;
60494;SDS011;46342;49.046;11.920;2022-12-18T08:00:33;27.02;;;9.10;;
60494;SDS011;46342;49.046;11.920;2022-12-18T08:02:59;33.20;;;10.75;;
60494;SDS011;46342;49.046;11.920;2022-12-18T08:05:25;24.42;;;8.50;;
60494;SDS011;46342;49.046;11.920;2022-12-18T08:07:51;28.92;;;10.50;;
60494;SDS011;46342;49.046;11.920;2022-12-18T08:10:18;23.25;;;7.97;;
60494;SDS011;46342;49.046;11.920;2022-12-18T08:12:45;33.70;;;10.27;;
60494;SDS011;46342;49.046;11.920;2022-12-18T08:15:10;30.83;;;11.18;;
60494;SDS011;46342;49.046;11.920;2022-12-18T08:17:36;33.55;;;10.70;;
60494;SDS011;46342;49.046;11.920;2022-12-18T08:20:02;33.63;;;10.18;;
60494;SDS011;46342;49.046;11.920;2022-12-18T08:22:27;33.83;;;10.70;;
60494;SDS011;46342;49.046;11.920;2022-12-18T08:24:53;35.80;;;11.00;;
60494;SDS011;46342;49.046;11.920;2022-12-18T08:27:19;35.67;;;11.23;;
60494;SDS011;46342;49.046;11.920;2022-12-18T08:29:44;29.23;;;9.52;;
60494;SDS011;46342;49.046;11.920;2022-12-18T08:32:10;29.60;;;9.88;;
60494;SDS011;46342;49.046;11.920;2022-12-18T08:34:35;30.67;;;9.18;;
60494;SDS011;46342;49.046;11.920;2022-12-18T08:37:01;31.63;;;11.27;;
60494;SDS011;46342;49.046;11.920;2022-12-18T08:39:27;39.15;;;11.15;;
60494;SDS011;46342;49.046;11.920;2022-12-18T08:41:52;26.02;;;9.15;;
60494;SDS011;46342;49.046;11.920;2022-12-18T08:44:36;37.88;;;12.02;;
60494;SDS011;46342;49.046;11.920;2022-12-18T08:47:02;43.08;;;12.02;;
60494;SDS011;46342;49.046;11.920;2022-12-18T08:49:28;39.05;;;14.52;;
60494;SDS011;46342;49.046;11.920;2022-12-18T08:51:54;49.20;;;15.85;;
60494;SDS011;46342;49.046;11.920;2022-12-18T08:54:22;36.75;;;11.98;;
60494;SDS011;46342;49.046;11.920;2022-12-18T08:56:48;37.17;;;12.40;;
60494;SDS011;46342;49.046;11.920;2022-12-18T08:59:14;39.05;;;12.75;;
60494;SDS011;46342;49.046;11.920;2022-12-18T09:01:41;33.95;;;11.07;;
60494;SDS011;46342;49.046;11.920;2022-12-18T09:04:07;40.58;;;11.48;;
60494;SDS011;46342;49.046;11.920;2022-12-18T09:06:34;27.17;;;10.53;;
60494;SDS011;46342;49.046;11.920;2022-12-18T09:09:00;32.08;;;10.60;;
60494;SDS011;46342;49.046;11.920;2022-12-18T09:11:26;27.50;;;9.07;;
60494;SDS011;46342;49.046;11.920;2022-12-18T09:13:53;28.88;;;9.48;;
60494;SDS011;46342;49.046;11.920;2022-12-18T09:16:19;30.55;;;10.30;;
60494;SDS011;46342;49.046;11.920;2022-12-18T09:18:46;22.30;;;8.13;;
60494;SDS011;46342;49.046;11.920;2022-12-18T09:21:13;24.92;;;9.18;;
60494;SDS011;46342;49.046;11.920;2022-12-18T09:23:43;38.33;;;11.77;;
60494;SDS011;46342;49.046;11.920;2022-12-18T09:26:14;26.52;;;8.60;;
60494;SDS011;46342;49.046;11.920;2022-12-18T09:28:39;27.90;;;8.27;;
60494;SDS011;46342;49.046;11.920;2022-12-18T09:31:06;28.38;;;10.57;;
60494;SDS011;46342;49.046;11.920;2022-12-18T09:33:34;33.65;;;11.93;;
60494;SDS011;46342;49.046;11.920;2022-12-18T09:36:01;31.55;;;11.32;;
60494;SDS011;46342;49.046;11.920;2022-12-18T09:38:32;34.63;;;9.82;;
60494;SDS011;46342;49.046;11.920;2022-12-18T09:41:06;32.20;;;11.20;;
60494;SDS011;46342;49.046;11.920;2022-12-18T09:43:45;27.30;;;10.23;;
60494;SDS011;46342;49.046;11.920;2022-12-18T09:46:28;39.80;;;12.63;;
60494;SDS011;46342;49.046;11.920;2022-12-18T09:48:57;28.98;;;10.10;;
60494;SDS011;46342;49.046;11.920;2022-12-18T09:51:27;33.97;;;12.38;;
60494;SDS011;46342;49.046;11.920;2022-12-18T09:54:01;25.88;;;9.82;;
60494;SDS011;46342;49.046;11.920;2022-12-18T09:56:31;32.22;;;10.63;;
60494;SDS011;46342;49.046;11.920;2022-12-18T09:59:02;29.40;;;9.93;;
60494;SDS011;46342;49.046;11.920;2022-12-18T10:01:29;34.53;;;10.02;;
60494;SDS011;46342;49.046;11.920;2022-12-18T10:03:55;32.28;;;9.90;;
60494;SDS011;46342;49.046;11.920;2022-12-18T10:06:27;30.35;;;10.32;;
60494;SDS011;46342;49.046;11.920;2022-12-18T10:09:18;25.15;;;9.23;;
60494;SDS011;46342;49.046;11.920;2022-12-18T10:19:49;28.10;;;10.55;;
60494;SDS011;46342;49.046;11.920;2022-12-18T10:22:41;23.83;;;8.60;;
60494;SDS011;46342;49.046;11.920;2022-12-18T10:27:57;23.80;;;9.50;;
60494;SDS011;46342;49.046;11.920;2022-12-18T10:30:28;22.48;;;8.50;;
60494;SDS011;46342;49.046;11.920;2022-12-18T10:32:54;22.80;;;9.98;;
60494;SDS011;46342;49.046;11.920;2022-12-18T10:35:26;31.90;;;10.13;;
60494;SDS011;46342;49.046;11.920;2022-12-18T10:38:03;26.95;;;10.95;;
60494;SDS011;46342;49.046;11.920;2022-12-18T10:40:32;37.85;;;11.00;;
60494;SDS011;46342;49.046;11.920;2022-12-18T10:43:13;26.70;;;8.73;;
60494;SDS011;46342;49.046;11.920;2022-12-18T10:45:40;25.55;;;9.82;;
60494;SDS011;46342;49.046;11.920;2022-12-18T10:48:24;34.72;;;10.85;;
60494;SDS011;46342;49.046;11.920;2022-12-18T10:50:51;27.60;;;10.95;;
60494;SDS011;46342;49.046;11.920;2022-12-18T10:53:24;26.10;;;9.25;;
60494;SDS011;46342;49.046;11.920;2022-12-18T10:55:52;32.55;;;11.73;;
60494;SDS011;46342;49.046;11.920;2022-12-18T10:58:21;25.80;;;9.13;;
60494;SDS011;46342;49.046;11.920;2022-12-18T11:01:04;32.05;;;11.80;;
60494;SDS011;46342;49.046;11.920;2022-12-18T11:03:35;30.25;;;10.23;;
60494;SDS011;46342;49.046;11.920;2022-12-18T11:06:03;24.63;;;9.88;;
60494;SDS011;46342;49.046;11.920;2022-12-18T11:08:31;26.67;;;9.23;;
60494;SDS011;46342;49.046;11.920;2022-12-18T11:10:57;30.65;;;10.25;;
60494;SDS011;46342;49.046;11.920;2022-12-18T11:13:23;24.25;;;9.25;;
60494;SDS011;46342;49.046;11.920;2022-12-18T11:18:17;25.10;;;8.27;;
60494;SDS011;46342;49.046;11.920;2022-12-18T11:20:51;27.27;;;9.20;;
60494;SDS011;46342;49.046;11.920;2022-12-18T11:23:31;26.58;;;9.60;;
60494;SDS011;46342;49.046;11.920;2022-12-18T11:26:01;32.47;;;10.13;;
60494;SDS011;46342;49.046;11.920;2022-12-18T11:33:44;37.67;;;12.30;;
60494;SDS011;46342;49.046;11.920;2022-12-18T11:36:20;26.48;;;11.25;;
60494;SDS011;46342;49.046;11.920;2022-12-18T11:38:48;35.58;;;11.27;;
60494;SDS011;46342;49.046;11.920;2022-12-18T11:44:13;38.35;;;12.45;;
60494;SDS011;46342;49.046;11.920;2022-12-18T11:46:46;43.35;;;14.98;;
60494;SDS011;46342;49.046;11.920;2022-12-18T11:49:34;38.28;;;12.18;;
60494;SDS011;46342;49.046;11.920;2022-12-18T11:52:03;34.65;;;11.48;;
60494;SDS011;46342;49.046;11.920;2022-12-18T11:54:52;35.35;;;12.25;;
60494;SDS011;46342;49.046;11.920;2022-12-18T11:57:38;37.90;;;12.15;;
60494;SDS011;46342;49.046;11.920;2022-12-18T12:00:15;29.95;;;10.55;;
60494;SDS011;46342;49.046;11.920;2022-12-18T12:08:38;34.33;;;11.98;;
60494;SDS011;46342;49.046;11.920;2022-12-18T12:14:15;26.73;;;8.73;;
60494;SDS011;46342;49.046;11.920;2022-12-18T12:16:57;36.10;;;11.43;;
60494;SDS011;46342;49.046;11.920;2022-12-18T12:19:45;35.78;;;12.02;;
60494;SDS011;46342;49.046;11.920;2022-12-18T12:22:16;37.83;;;12.25;;
60494;SDS011;46342;49.046;11.920;2022-12-18T12:30:24;41.38;;;13.45;;
60494;SDS011;46342;49.046;11.920;2022-12-18T12:35:42;36.10;;;12.65;;
60494;SDS011;46342;49.046;11.920;2022-12-18T12:40:49;32.60;;;12.10;;
60494;SDS011;46342;49.046;11.920;2022-12-18T12:45:49;41.53;;;13.88;;
60494;SDS011;46342;49.046;11.920;2022-12-18T12:48:42;40.25;;;15.48;;
60494;SDS011;46342;49.046;11.920;2022-12-18T12:51:56;48.63;;;15.30;;
60494;SDS011;46342;49.046;11.920;2022-12-18T12:54:17;50.83;;;15.13;;
60494;SDS011;46342;49.046;11.920;2022-12-18T12:56:55;41.13;;;13.23;;
60494;SDS011;46342;49.046;11.920;2022-12-18T12:59:36;37.17;;;12.35;;
60494;SDS011;46342;49.046;11.920;2022-12-18T13:02:07;56.20;;;18.85;;
60494;SDS011;46342;49.046;11.920;2022-12-18T13:08:24;50.90;;;17.00;;
60494;SDS011;46342;49.046;11.920;2022-12-18T13:10:52;51.20;;;16.00;;
60494;SDS011;46342;49.046;11.920;2022-12-18T13:13:53;39.35;;;12.40;;
60494;SDS011;46342;49.046;11.920;2022-12-18T13:16:21;35.60;;;12.15;;
60494;SDS011;46342;49.046;11.920;2022-12-18T13:18:49;36.13;;;12.70;;
60494;SDS011;46342;49.046;11.920;2022-12-18T13:21:29;31.50;;;12.57;;
60494;SDS011;46342;49.046;11.920;2022-12-18T13:23:57;35.47;;;13.13;;
60494;SDS011;46342;49.046;11.920;2022-12-18T13:26:50;25.15;;;10.65;;
60494;SDS011;46342;49.046;11.920;2022-12-18T13:30:01;37.97;;;12.00;;
60494;SDS011;46342;49.046;11.920;2022-12-18T13:32:16;33.15;;;12.18;;
60494;SDS011;46342;49.046;11.920;2022-12-18T13:34:45;36.95;;;13.23;;
60494;SDS011;46342;49.046;11.920;2022-12-18T13:40:20;42.08;;;12.98;;
60494;SDS011;46342;49.046;11.920;2022-12-18T13:45:59;36.22;;;11.57;;
60494;SDS011;46342;49.046;11.920;2022-12-18T13:48:26;30.95;;;12.40;;
60494;SDS011;46342;49.046;11.920;2022-12-18T13:50:58;36.95;;;12.98;;
60494;SDS011;46342;49.046;11.920;2022-12-18T13:53:39;36.08;;;12.13;;
60494;SDS011;46342;49.046;11.920;2022-12-18T13:56:09;33.38;;;10.88;;
60494;SDS011;46342;49.046;11.920;2022-12-18T13:58:44;36.38;;;12.98;;
60494;SDS011;46342;49.046;11.920;2022-12-18T14:01:21;35.78;;;14.27;;
60494;SDS011;46342;49.046;11.920;2022-12-18T14:06:13;36.22;;;10.95;;
60494;SDS011;46342;49.046;11.920;2022-12-18T14:08:40;28.88;;;10.90;;
60494;SDS011;46342;49.046;11.920;2022-12-18T14:13:43;26.30;;;9.98;;
60494;SDS011;46342;49.046;11.920;2022-12-18T14:16:11;27.65;;;10.48;;
60494;SDS011;46342;49.046;11.920;2022-12-18T14:18:52;31.27;;;13.00;;
60494;SDS011;46342;49.046;11.920;2022-12-18T14:21:24;33.35;;;11.05;;
60494;SDS011;46342;49.046;11.920;2022-12-18T14:24:14;40.92;;;14.50;;
60494;SDS011;46342;49.046;11.920;2022-12-18T14:26:42;28.60;;;10.02;;
60494;SDS011;46342;49.046;11.920;2022-12-18T14:29:41;35.63;;;11.60;;
60494;SDS011;46342;49.046;11.920;2022-12-18T14:32:04;40.55;;;12.35;;
60494;SDS011;46342;49.046;11.920;2022-12-18T14:34:42;34.67;;;12.40;;
60494;SDS011;46342;49.046;11.920;2022-12-18T14:37:16;32.90;;;12.00;;
60494;SDS011;46342;49.046;11.920;2022-12-18T14:39:52;30.45;;;10.65;;
60494;SDS011;46342;49.046;11.920;2022-12-18T14:42:25;41.92;;;13.50;;
60494;SDS011;46342;49.046;11.920;2022-12-18T14:45:31;42.67;;;13.50;;
60494;SDS011;46342;49.046;11.920;2022-12-18T14:48:20;38.22;;;12.82;;
60494;SDS011;46342;49.046;11.920;2022-12-18T14:51:00;41.70;;;14.35;;
60494;SDS011;46342;49.046;11.920;2022-12-18T14:53:38;33.05;;;10.40;;
60494;SDS011;46342;49.046;11.920;2022-12-18T14:56:17;32.63;;;11.40;;
60494;SDS011;46342;49.046;11.920;2022-12-18T14:58:54;50.90;;;18.47;;
60494;SDS011;46342;49.046;11.920;2022-12-18T15:01:31;68.97;;;20.10;;
60494;SDS011;46342;49.046;11.920;2022-12-18T15:04:00;61.03;;;18.50;;
60494;SDS011;46342;49.046;11.920;2022-12-18T15:06:28;47.10;;;15.43;;
60494;SDS011;46342;49.046;11.920;2022-12-18T15:09:04;38.65;;;14.05;;
60494;SDS011;46342;49.046;11.920;2022-12-18T15:11:46;36.20;;;13.75;;
60494;SDS011;46342;49.046;11.920;2022-12-18T15:16:58;34.72;;;12.23;;
60494;SDS011;46342;49.046;11.920;2022-12-18T15:19:31;35.78;;;11.63;;
60494;SDS011;46342;49.046;11.920;2022-12-18T15:22:00;36.22;;;11.57;;
60494;SDS011;46342;49.046;11.920;2022-12-18T15:24:27;40.17;;;14.07;;
60494;SDS011;46342;49.046;11.920;2022-12-18T15:26:56;34.30;;;11.95;;
60494;SDS011;46342;49.046;11.920;2022-12-18T15:29:22;45.45;;;14.30;;
60494;SDS011;46342;49.046;11.920;2022-12-18T15:34:45;36.58;;;11.60;;
60494;SDS011;46342;49.046;11.920;2022-12-18T15:37:10;48.05;;;15.43;;
60494;SDS011;46342;49.046;11.920;2022-12-18T15:39:36;41.75;;;14.55;;
60494;SDS011;46342;49.046;11.920;2022-12-18T15:42:02;46.10;;;13.82;;
60494;SDS011;46342;49.046;11.920;2022-12-18T15:44:46;42.38;;;14.57;;
60494;SDS011;46342;49.046;11.920;2022-12-18T15:47:12;40.88;;;13.13;;
60494;SDS011;46342;49.046;11.920;2022-12-18T15:49:38;37.85;;;13.05;;
60494;SDS011;46342;49.046;11.920;2022-12-18T15:52:04;42.63;;;15.25;;
60494;SDS011;46342;49.046;11.920;2022-12-18T15:54:30;38.58;;;15.23;;